Time;durP1;ratioP1;P1;durP2;ratioP2;P2;SDS_P1;SDS_P2;PMS_P1;PMS_P2;Temp;Humidity;BMP_temperature;BMP_pressure;BME280_temperature;BME280_humidity;BME280_pressure;Samples;Min_cycle;Max_cycle;Signal;HPM_P1;HPM_P2
2023/07/14 00:01:22;;;;;;;5.07;4.33;;;18.20;1.00;;;;;;5001476;28;20205;-65
2023/07/14 00:03:50;;;;;;;7.40;4.03;;;18.00;1.00;;;;;;5002019;28;20222;-66
2023/07/14 00:06:18;;;;;;;6.60;4.07;;;18.00;99.90;;;;;;5001901;28;20755;-66
2023/07/14 00:08:45;;;;;;;4.77;3.97;;;18.00;99.90;;;;;;4999842;28;20292;-66
2023/07/14 00:11:21;;;;;;;9.20;4.57;;;18.00;1.00;;;;;;5000444;28;20225;-66
2023/07/14 00:13:49;;;;;;;11.70;4.30;;;17.90;1.00;;;;;;4999474;28;20267;-65
2023/07/14 00:16:25;;;;;;;8.17;4.53;;;17.90;1.00;;;;;;5000822;28;20259;-65
2023/07/14 00:18:52;;;;;;;6.27;4.63;;;18.00;1.00;;;;;;5001322;28;20640;-65
2023/07/14 00:21:24;;;;;;;7.70;5.27;;;18.10;99.90;;;;;;4998041;28;20205;-67
2023/07/14 00:24:00;;;;;;;8.97;4.70;;;18.00;99.90;;;;;;5000590;28;20288;-60
2023/07/14 00:26:29;;;;;;;6.23;4.53;;;17.90;1.00;;;;;;5000463;28;20211;-62
2023/07/14 00:28:56;;;;;;;7.33;4.60;;;17.90;99.90;;;;;;4999695;28;20209;-61
2023/07/14 00:31:23;;;;;;;6.13;4.47;;;18.00;99.90;;;;;;4999793;28;20649;-59
2023/07/14 00:33:52;;;;;;;5.57;4.80;;;17.90;99.90;;;;;;4995450;28;20473;-61
2023/07/14 00:36:19;;;;;;;6.73;4.20;;;17.80;1.00;;;;;;5000174;28;20225;-61
2023/07/14 00:38:46;;;;;;;4.50;4.10;;;17.90;99.90;;;;;;5000733;28;20722;-60
2023/07/14 00:41:24;;;;;;;7.80;4.57;;;17.90;1.00;;;;;;4999504;28;20201;-60
2023/07/14 00:43:52;;;;;;;5.57;3.93;;;17.90;1.00;;;;;;4999386;28;20680;-60
2023/07/14 00:46:28;;;;;;;8.87;4.50;;;17.90;1.00;;;;;;5000932;28;20209;-60
2023/07/14 00:49:06;;;;;;;7.77;3.53;;;18.00;1.00;;;;;;4998494;28;20296;-60
2023/07/14 00:51:35;;;;;;;4.73;3.47;;;18.00;1.00;;;;;;4999965;28;20271;-60
2023/07/14 00:54:02;;;;;;;7.07;3.97;;;18.10;1.00;;;;;;5000221;28;20209;-61
2023/07/14 00:56:40;;;;;;;8.97;3.83;;;17.90;99.90;;;;;;4997767;28;20217;-60
2023/07/14 00:59:13;;;;;;;6.37;4.07;;;18.00;1.00;;;;;;4998571;28;20201;-59
2023/07/14 01:02:11;;;;;;;4.73;4.00;;;17.80;1.00;;;;;;5016422;23;20205;-62
2023/07/14 01:04:41;;;;;;;7.07;4.17;;;17.80;99.90;;;;;;4976784;28;20633;-58
2023/07/14 01:07:10;;;;;;;7.93;3.87;;;17.90;1.00;;;;;;4978900;28;20224;-58
2023/07/14 01:09:39;;;;;;;9.23;4.27;;;17.90;1.00;;;;;;4978003;28;20213;-58
2023/07/14 01:12:09;;;;;;;7.67;4.13;;;17.70;1.00;;;;;;4995740;28;20202;-59
2023/07/14 01:14:42;;;;;;;7.27;3.93;;;17.80;99.90;;;;;;4975420;28;20213;-58
2023/07/14 01:17:09;;;;;;;4.53;3.70;;;17.80;99.90;;;;;;4977110;28;20688;-58
2023/07/14 01:19:56;;;;;;;10.10;4.97;;;17.90;99.90;;;;;;4980813;28;20708;-58
2023/07/14 01:22:30;;;;;;;8.37;4.80;;;17.80;99.90;;;;;;4999112;28;20678;-58
2023/07/14 01:25:29;;;;;;;6.10;4.20;;;17.90;99.90;;;;;;4978126;28;20652;-58
2023/07/14 01:27:56;;;;;;;4.77;4.20;;;17.90;1.00;;;;;;4978353;28;20560;-58
2023/07/14 01:30:24;;;;;;;10.60;5.17;;;17.80;1.00;;;;;;4978984;28;20241;-58
2023/07/14 01:32:51;;;;;;;5.63;4.60;;;17.80;1.00;;;;;;4977742;28;20272;-58
2023/07/14 01:35:24;;;;;;;7.60;4.30;;;17.80;46.90;;;;;;4979192;28;20462;-58
2023/07/14 01:37:51;;;;;;;8.87;4.80;;;17.90;1.00;;;;;;4979388;28;20225;-58
2023/07/14 01:40:19;;;;;;;7.90;4.60;;;17.80;1.00;;;;;;4977199;28;20216;-58
2023/07/14 01:42:54;;;;;;;7.00;4.37;;;17.90;1.00;;;;;;4977922;28;20661;-58
2023/07/14 01:45:23;;;;;;;8.13;4.93;;;17.70;1.00;;;;;;4979353;28;20757;-58
2023/07/14 01:47:54;;;;;;;6.33;5.20;;;17.80;1.00;;;;;;4977569;28;20195;-58
2023/07/14 01:50:33;;;;;;;6.40;4.63;;;17.80;1.00;;;;;;4978543;28;20202;-58
2023/07/14 01:53:17;;;;;;;5.30;4.80;;;17.70;1.00;;;;;;4984523;28;20280;-58
2023/07/14 01:55:46;;;;;;;8.63;4.00;;;17.70;1.00;;;;;;4977516;28;20209;-58
2023/07/14 01:58:25;;;;;;;6.80;5.07;;;17.80;1.00;;;;;;4978807;28;20325;-58
2023/07/14 02:00:53;;;;;;;5.73;4.60;;;17.80;1.00;;;;;;4979187;28;20198;-58
2023/07/14 02:03:30;;;;;;;8.83;5.77;;;17.90;1.00;;;;;;4982501;28;20243;-58
2023/07/14 02:05:58;;;;;;;8.07;4.70;;;17.80;1.00;;;;;;4987485;28;20731;-58
2023/07/14 02:08:25;;;;;;;7.20;4.77;;;17.70;1.00;;;;;;4985707;28;20221;-58
2023/07/14 02:10:52;;;;;;;6.17;4.77;;;17.70;1.00;;;;;;4985873;28;20607;-58
2023/07/14 02:13:21;;;;;;;6.07;5.20;;;17.80;1.00;;;;;;4982922;28;20216;-59
2023/07/14 02:15:48;;;;;;;7.80;4.97;;;17.70;1.00;;;;;;4985902;28;20233;-60
2023/07/14 02:18:18;;;;;;;7.00;4.90;;;17.60;1.00;;;;;;4985150;28;20201;-59
2023/07/14 02:20:47;;;;;;;6.90;5.63;;;17.70;1.00;;;;;;4983851;28;20248;-59
2023/07/14 02:23:21;;;;;;;8.97;5.23;;;17.50;1.00;;;;;;4984410;28;20208;-59
2023/07/14 02:26:20;;;;;;;6.63;5.93;;;17.40;99.90;;;;;;4978310;28;20903;-59
2023/07/14 02:28:47;;;;;;;10.00;4.50;;;17.40;1.00;;;;;;4969470;28;20670;-60
2023/07/14 02:31:38;;;;;;;8.27;5.50;;;17.50;99.90;;;;;;4969612;28;20268;-59
2023/07/14 02:34:14;;;;;;;6.60;5.33;;;17.40;1.00;;;;;;4983307;28;20221;-59
2023/07/14 02:36:54;;;;;;;8.10;5.07;;;17.50;99.90;;;;;;4981077;28;20210;-59
2023/07/14 02:39:22;;;;;;;8.23;5.23;;;17.40;99.90;;;;;;4980084;28;20208;-59
2023/07/14 02:41:53;;;;;;;6.70;5.00;;;17.40;99.90;;;;;;4977531;28;20233;-59
2023/07/14 02:44:25;;;;;;;6.50;5.60;;;17.40;99.90;;;;;;4979189;28;20605;-59
2023/07/14 02:47:20;;;;;;;7.07;5.03;;;17.40;99.90;;;;;;4980505;28;20259;-59
2023/07/14 02:49:48;;;;;;;7.23;5.10;;;17.40;1.00;;;;;;4976938;28;20678;-59
2023/07/14 02:52:15;;;;;;;9.33;5.27;;;17.30;99.90;;;;;;4980380;28;20273;-59
2023/07/14 02:54:42;;;;;;;7.27;5.20;;;17.30;99.90;;;;;;4977524;28;20217;-60
2023/07/14 02:57:09;;;;;;;7.10;5.00;;;17.20;1.00;;;;;;4981496;28;20603;-59
2023/07/14 02:59:36;;;;;;;7.43;5.17;;;17.20;1.00;;;;;;4978016;28;20200;-59
2023/07/14 03:02:03;;;;;;;8.33;5.30;;;17.20;1.00;;;;;;4978144;28;20241;-60
2023/07/14 03:04:31;;;;;;;7.40;5.00;;;17.10;1.00;;;;;;4976283;28;20196;-59
2023/07/14 03:06:58;;;;;;;10.90;5.50;;;17.20;1.00;;;;;;4980842;28;22014;-59
2023/07/14 03:09:24;;;;;;;8.27;5.97;;;17.10;99.90;;;;;;4983351;28;20225;-59
2023/07/14 03:11:51;;;;;;;8.37;5.33;;;17.10;1.00;;;;;;4983164;28;20571;-59
2023/07/14 03:14:18;;;;;;;6.70;5.57;;;17.10;99.90;;;;;;4984141;28;20651;-59
2023/07/14 03:16:45;;;;;;;7.90;5.57;;;17.10;99.90;;;;;;4982783;28;20237;-59
2023/07/14 03:19:12;;;;;;;7.40;5.57;;;17.00;13.10;;;;;;4981842;28;20210;-59
2023/07/14 03:21:39;;;;;;;6.20;4.83;;;17.00;1.00;;;;;;4981828;28;20647;-59
2023/07/14 03:24:06;;;;;;;8.20;5.30;;;17.00;99.90;;;;;;4981119;28;20783;-58
2023/07/14 03:26:32;;;;;;;6.93;5.53;;;16.90;1.00;;;;;;4982362;28;20544;-59
2023/07/14 03:28:59;;;;;;;9.10;4.97;;;16.90;1.00;;;;;;4983257;28;20198;-58
2023/07/14 03:31:26;;;;;;;6.50;5.77;;;16.90;1.00;;;;;;4981968;28;20789;-58
2023/07/14 03:33:53;;;;;;;8.77;5.63;;;16.90;1.00;;;;;;4980747;28;20213;-58
2023/07/14 03:36:20;;;;;;;6.40;4.60;;;17.00;1.00;;;;;;4980706;28;20262;-58
2023/07/14 03:39:26;;;;;;;7.20;4.97;;;17.00;1.00;;;;;;4980850;28;20229;-59
2023/07/14 03:41:54;;;;;;;8.37;5.10;;;16.90;1.00;;;;;;4974860;28;20217;-58
2023/07/14 03:44:21;;;;;;;12.27;4.97;;;16.90;1.00;;;;;;4975914;28;20213;-58
2023/07/14 03:46:48;;;;;;;8.23;4.83;;;16.80;1.00;;;;;;4981133;28;20739;-58
2023/07/14 03:49:16;;;;;;;7.97;5.70;;;16.90;99.90;;;;;;4979007;28;20613;-58
2023/07/14 03:51:43;;;;;;;6.17;5.30;;;16.90;1.00;;;;;;4977484;28;20949;-58
2023/07/14 03:54:11;;;;;;;7.77;5.10;;;16.80;54.50;;;;;;4983298;28;20222;-58
2023/07/14 03:56:38;;;;;;;8.50;5.93;;;16.80;1.00;;;;;;4976357;28;20231;-58
2023/07/14 03:59:07;;;;;;;7.13;5.40;;;16.80;99.90;;;;;;4980791;28;20276;-58
2023/07/14 04:01:34;;;;;;;9.33;5.20;;;16.90;1.00;;;;;;4981243;28;20212;-58
2023/07/14 04:04:01;;;;;;;7.67;5.53;;;17.00;1.00;;;;;;4978790;28;20356;-58
2023/07/14 04:06:28;;;;;;;6.23;5.27;;;16.90;1.00;;;;;;4980018;28;20207;-58
2023/07/14 04:09:00;;;;;;;8.00;5.40;;;16.90;99.90;;;;;;4982222;28;20299;-58
2023/07/14 04:11:27;;;;;;;6.63;5.23;;;16.90;1.00;;;;;;4978864;28;20623;-58
2023/07/14 04:13:54;;;;;;;6.27;5.33;;;16.90;1.00;;;;;;4975717;28;20258;-58
2023/07/14 04:16:23;;;;;;;6.20;5.27;;;16.90;1.00;;;;;;4979450;28;20699;-58
2023/07/14 04:18:50;;;;;;;7.60;5.27;;;16.90;1.00;;;;;;4980311;28;20680;-58
2023/07/14 04:21:24;;;;;;;8.37;5.20;;;16.80;99.90;;;;;;4976477;28;20736;-58
2023/07/14 04:23:51;;;;;;;9.60;5.17;;;16.80;90.20;;;;;;4981616;28;20227;-58
2023/07/14 04:26:20;;;;;;;7.27;5.10;;;16.80;99.90;;;;;;4981507;28;20657;-58
2023/07/14 04:28:47;;;;;;;7.50;5.40;;;17.00;1.00;;;;;;4979299;28;20689;-58
2023/07/14 04:31:14;;;;;;;10.10;5.10;;;17.00;1.00;;;;;;4991233;28;20212;-60
2023/07/14 04:33:45;;;;;;;7.60;4.70;;;16.90;1.00;;;;;;4978071;28;20318;-56
2023/07/14 04:36:14;;;;;;;10.23;6.43;;;16.80;1.00;;;;;;4988224;28;20626;-57
2023/07/14 04:39:00;;;;;;;7.87;5.03;;;16.70;1.00;;;;;;4983264;28;20243;-57
2023/07/14 04:41:27;;;;;;;9.40;5.70;;;16.80;1.00;;;;;;4982056;28;20212;-57
2023/07/14 04:43:54;;;;;;;7.73;5.53;;;16.70;1.00;;;;;;4985536;28;20244;-58
2023/07/14 04:46:20;;;;;;;10.00;5.10;;;16.70;1.00;;;;;;4986242;28;20209;-57
2023/07/14 04:48:48;;;;;;;6.23;5.27;;;16.80;99.90;;;;;;4981660;28;20865;-57
2023/07/14 04:51:15;;;;;;;7.90;5.80;;;16.70;1.00;;;;;;4983146;28;20209;-57
2023/07/14 04:53:42;;;;;;;8.10;5.90;;;16.60;1.00;;;;;;4984206;28;20251;-59
2023/07/14 04:56:08;;;;;;;11.40;5.90;;;16.50;99.90;;;;;;4984231;28;20916;-57
2023/07/14 04:58:35;;;;;;;5.97;5.37;;;16.70;1.00;;;;;;4984236;28;20212;-56
2023/07/14 05:01:02;;;;;;;10.57;5.93;;;16.70;32.50;;;;;;4984283;28;20271;-59
2023/07/14 05:03:29;;;;;;;8.70;5.57;;;16.70;1.00;;;;;;4981500;28;20346;-57
2023/07/14 05:05:56;;;;;;;7.90;5.17;;;16.70;1.00;;;;;;4984426;28;20203;-58
2023/07/14 05:08:23;;;;;;;7.00;5.70;;;16.80;99.90;;;;;;4985345;28;20483;-58
2023/07/14 05:10:50;;;;;;;8.73;5.67;;;16.80;1.00;;;;;;4985357;28;20643;-58
2023/07/14 05:13:18;;;;;;;6.63;5.40;;;16.70;1.00;;;;;;4983452;28;20227;-57
2023/07/14 05:15:45;;;;;;;6.10;5.43;;;16.80;99.90;;;;;;4982205;28;20270;-58
2023/07/14 05:18:15;;;;;;;7.03;5.20;;;16.80;1.00;;;;;;4997933;28;20220;-58
2023/07/14 05:20:43;;;;;;;8.57;5.60;;;16.80;1.00;;;;;;4982639;28;20324;-58
2023/07/14 05:23:11;;;;;;;8.33;5.60;;;16.70;99.90;;;;;;4989926;28;20223;-59
2023/07/14 05:25:38;;;;;;;8.33;5.33;;;16.70;1.00;;;;;;4986248;28;20231;-57
2023/07/14 05:28:05;;;;;;;7.53;5.00;;;16.70;1.00;;;;;;4984578;28;20203;-57
2023/07/14 05:30:33;;;;;;;10.50;5.17;;;16.90;1.00;;;;;;4983961;28;20219;-58
2023/07/14 05:33:00;;;;;;;8.40;5.33;;;17.10;75.00;;;;;;4982514;28;20668;-57
2023/07/14 05:35:27;;;;;;;6.80;5.13;;;17.00;1.00;;;;;;4979902;28;20221;-58
2023/07/14 05:37:56;;;;;;;5.00;4.50;;;16.90;82.00;;;;;;4980899;28;20230;-58
2023/07/14 05:40:23;;;;;;;5.93;5.20;;;17.00;1.00;;;;;;4980651;28;20223;-58
2023/07/14 05:42:50;;;;;;;8.43;5.00;;;16.90;52.10;;;;;;4978001;28;20208;-58
2023/07/14 05:45:17;;;;;;;9.73;5.13;;;16.90;1.00;;;;;;4979988;28;20546;-58
2023/07/14 05:47:46;;;;;;;8.43;5.20;;;16.90;13.40;;;;;;4977294;28;20315;-59
2023/07/14 05:50:14;;;;;;;8.50;4.97;;;17.10;99.90;;;;;;4977035;28;20195;-59
2023/07/14 05:52:42;;;;;;;6.20;4.70;;;17.30;99.90;;;;;;4978427;28;20680;-59
2023/07/14 05:55:10;;;;;;;6.80;4.30;;;17.20;1.00;;;;;;4977562;28;20666;-58
2023/07/14 05:57:37;;;;;;;8.10;4.83;;;17.40;99.90;;;;;;4981908;28;20227;-57
2023/07/14 06:00:13;;;;;;;6.60;4.33;;;17.30;1.00;;;;;;4971085;28;20243;-59
2023/07/14 06:02:41;;;;;;;8.47;5.03;;;17.40;99.90;;;;;;4976146;28;20236;-59
2023/07/14 06:05:09;;;;;;;6.43;4.50;;;17.40;99.90;;;;;;4976016;28;20618;-58
2023/07/14 06:07:38;;;;;;;9.03;6.23;;;17.40;99.90;;;;;;4995896;28;20319;-58
2023/07/14 06:10:07;;;;;;;6.67;4.93;;;17.40;76.40;;;;;;4978606;28;20202;-58
2023/07/14 06:12:34;;;;;;;8.73;4.80;;;17.60;1.00;;;;;;4979235;28;20550;-57
2023/07/14 06:15:01;;;;;;;7.43;4.33;;;17.50;1.00;;;;;;4976255;28;20207;-58
2023/07/14 06:17:29;;;;;;;6.97;4.37;;;17.30;1.00;;;;;;4983399;28;20292;-58
2023/07/14 06:19:56;;;;;;;10.37;4.67;;;17.30;66.70;;;;;;4978978;28;20207;-56
2023/07/14 06:22:23;;;;;;;6.20;4.70;;;17.60;1.00;;;;;;4978366;28;20206;-59
2023/07/14 06:24:49;;;;;;;8.53;4.33;;;17.90;1.00;;;;;;4977303;28;20201;-58
2023/07/14 06:27:18;;;;;;;6.93;3.80;;;17.80;57.90;;;;;;4971824;28;20683;-59
2023/07/14 06:29:45;;;;;;;5.57;3.97;;;17.90;1.00;;;;;;4619974;28;9999980;-58
2023/07/14 06:32:15;;;;;;;8.60;4.00;;;17.80;1.00;;;;;;4976538;28;20831;-58
2023/07/14 06:34:44;;;;;;;5.53;3.80;;;17.70;1.00;;;;;;4975367;28;20210;-59
2023/07/14 06:37:11;;;;;;;7.03;3.67;;;18.00;1.00;;;;;;4978113;28;20224;-59
2023/07/14 06:39:38;;;;;;;7.40;4.20;;;18.10;1.00;;;;;;4977881;28;20295;-58
2023/07/14 06:42:05;;;;;;;8.43;4.07;;;18.30;99.90;;;;;;4978765;28;20782;-57
2023/07/14 06:44:32;;;;;;;9.03;3.70;;;18.20;99.90;;;;;;4980469;28;20652;-57
2023/07/14 06:46:59;;;;;;;7.37;3.47;;;18.20;98.80;;;;;;4976869;28;20210;-59
2023/07/14 06:49:26;;;;;;;6.03;4.10;;;18.30;21.00;;;;;;4981468;28;20207;-58
2023/07/14 06:51:55;;;;;;;8.37;4.50;;;18.40;34.00;;;;;;4978557;28;20656;-59
2023/07/14 06:54:22;;;;;;;7.20;3.23;;;18.50;1.00;;;;;;4976213;28;20228;-59
2023/07/14 06:56:49;;;;;;;4.97;3.17;;;18.60;1.00;;;;;;4975096;28;20239;-59
2023/07/14 06:59:15;;;;;;;8.50;3.50;;;18.80;1.00;;;;;;4978586;28;20247;-59
2023/07/14 07:01:42;;;;;;;7.47;3.97;;;19.00;1.00;;;;;;4975073;28;20205;-59
2023/07/14 07:04:09;;;;;;;7.60;4.03;;;19.10;1.00;;;;;;4980412;28;20712;-58
2023/07/14 07:06:36;;;;;;;6.83;4.20;;;19.00;1.00;;;;;;4978651;28;20280;-59
2023/07/14 07:09:04;;;;;;;7.63;4.00;;;18.70;1.00;;;;;;4979289;28;20206;-59
2023/07/14 07:11:33;;;;;;;4.43;3.33;;;19.00;1.00;;;;;;4976400;28;20673;-59
2023/07/14 07:14:00;;;;;;;4.77;3.37;;;19.20;1.00;;;;;;4975442;28;21058;-59
2023/07/14 07:16:27;;;;;;;4.57;3.30;;;19.10;1.00;;;;;;4974858;28;20217;-58
2023/07/14 07:18:55;;;;;;;4.23;3.20;;;19.10;1.00;;;;;;4979043;28;20347;-59
2023/07/14 07:21:22;;;;;;;5.80;3.43;;;19.20;1.00;;;;;;4979162;28;20218;-59
2023/07/14 07:23:49;;;;;;;6.17;3.70;;;19.00;1.00;;;;;;4981842;28;20240;-59
2023/07/14 07:26:15;;;;;;;7.13;3.73;;;19.50;1.00;;;;;;4980891;28;20928;-59
2023/07/14 07:28:42;;;;;;;5.97;3.30;;;19.40;99.90;;;;;;4978066;28;20732;-58
2023/07/14 07:31:11;;;;;;;6.50;3.33;;;19.30;99.90;;;;;;4979729;28;20268;-59
2023/07/14 07:33:38;;;;;;;7.83;3.47;;;19.70;99.90;;;;;;4979472;28;20209;-59
2023/07/14 07:36:17;;;;;;;5.17;3.10;;;19.60;99.90;;;;;;4975027;28;20552;-59
2023/07/14 07:38:47;;;;;;;7.43;3.27;;;19.50;99.90;;;;;;4977512;28;20217;-58
2023/07/14 07:41:20;;;;;;;6.00;3.40;;;19.40;99.90;;;;;;4980983;28;20698;-58
2023/07/14 07:43:47;;;;;;;5.73;3.50;;;19.20;1.00;;;;;;4981276;28;20580;-60
2023/07/14 07:46:14;;;;;;;7.00;2.80;;;19.30;1.00;;;;;;4975483;28;20340;-59
2023/07/14 07:48:43;;;;;;;8.43;3.70;;;19.60;99.90;;;;;;4977826;28;20198;-59
2023/07/14 07:51:10;;;;;;;4.93;2.97;;;19.90;99.90;;;;;;4973874;28;20714;-61
2023/07/14 07:53:37;;;;;;;6.70;3.43;;;20.30;99.90;;;;;;4970457;28;20209;-59
2023/07/14 07:56:04;;;;;;;3.80;2.60;;;20.20;91.10;;;;;;4977698;28;20233;-61
2023/07/14 07:58:31;;;;;;;8.87;3.50;;;19.80;94.70;;;;;;4995488;28;20229;-60
2023/07/14 08:01:03;;;;;;;4.80;2.83;;;19.70;99.90;;;;;;4982154;28;20209;-59
2023/07/14 08:03:31;;;;;;;4.70;3.40;;;19.80;99.90;;;;;;4973000;28;22697;-60
2023/07/14 08:06:03;;;;;;;5.40;3.00;;;19.50;99.90;;;;;;4976142;28;20205;-60
2023/07/14 08:08:31;;;;;;;6.20;3.70;;;19.70;99.90;;;;;;4979354;28;20719;-60
2023/07/14 08:10:58;;;;;;;4.53;3.10;;;19.80;99.90;;;;;;4977493;28;20265;-60
2023/07/14 08:13:28;;;;;;;6.63;3.50;;;19.80;99.90;;;;;;4978277;28;20210;-64
2023/07/14 08:15:57;;;;;;;6.07;3.43;;;19.80;99.90;;;;;;4973648;28;20198;-64
2023/07/14 08:18:24;;;;;;;5.60;3.20;;;19.70;99.90;;;;;;4976269;28;20400;-60
2023/07/14 08:20:52;;;;;;;7.73;2.80;;;19.70;99.90;;;;;;4984831;28;20198;-63
2023/07/14 08:23:21;;;;;;;4.93;3.10;;;19.70;99.90;;;;;;4985102;28;20614;-60
2023/07/14 08:25:58;;;;;;;4.47;2.40;;;19.90;99.90;;;;;;4986306;28;20681;-60
2023/07/14 08:28:26;;;;;;;4.50;3.00;;;19.90;98.60;;;;;;4987392;28;20877;-60
2023/07/14 08:30:55;;;;;;;6.37;3.13;;;19.70;99.90;;;;;;4987264;28;20649;-60
2023/07/14 08:33:24;;;;;;;6.17;2.87;;;19.90;99.90;;;;;;4985758;28;20545;-60
2023/07/14 08:35:52;;;;;;;4.83;2.73;;;19.80;98.30;;;;;;4984070;28;20202;-60
2023/07/14 08:38:19;;;;;;;3.50;2.50;;;19.70;99.90;;;;;;4986639;28;20633;-60
2023/07/14 08:40:54;;;;;;;4.27;2.40;;;19.70;1.00;;;;;;4981817;28;20207;-60
2023/07/14 08:43:47;;;;;;;6.43;2.60;;;19.90;34.00;;;;;;4986107;28;20570;-60
2023/07/14 08:46:30;;;;;;;4.97;2.60;;;19.70;99.90;;;;;;4986169;28;20680;-60
2023/07/14 08:49:11;;;;;;;6.40;2.90;;;19.70;61.60;;;;;;4986064;28;20213;-60
2023/07/14 08:51:45;;;;;;;5.43;2.57;;;20.00;99.90;;;;;;4984264;28;20217;-60
2023/07/14 08:54:22;;;;;;;4.40;2.50;;;20.30;22.90;;;;;;4984135;28;20584;-60
2023/07/14 08:56:50;;;;;;;3.87;2.33;;;20.50;1.00;;;;;;4986564;28;20669;-61
2023/07/14 08:59:34;;;;;;;6.37;2.07;;;20.50;1.00;;;;;;4986477;28;20634;-60
2023/07/14 09:02:13;;;;;;;3.57;2.40;;;20.50;1.00;;;;;;4982615;28;20327;-62
2023/07/14 09:04:42;;;;;;;4.27;2.60;;;20.70;1.00;;;;;;4980751;28;20221;-59
2023/07/14 09:07:16;;;;;;;5.17;2.30;;;20.50;1.00;;;;;;4982776;28;20206;-60
2023/07/14 09:09:43;;;;;;;5.47;2.60;;;20.70;1.00;;;;;;4987615;28;20232;-60
2023/07/14 09:12:31;;;;;;;4.07;2.53;;;20.50;1.00;;;;;;4986730;28;20616;-60
2023/07/14 09:15:06;;;;;;;4.80;2.33;;;20.60;1.00;;;;;;4981971;28;20202;-58
2023/07/14 09:18:06;;;;;;;4.57;2.50;;;20.90;1.00;;;;;;4983049;28;20292;-58
2023/07/14 09:20:51;;;;;;;4.40;2.47;;;21.00;1.00;;;;;;4986801;28;20316;-57
2023/07/14 09:23:53;;;;;;;5.00;2.73;;;21.30;1.00;;;;;;4980770;28;20202;-57
2023/07/14 09:26:44;;;;;;;2.77;2.10;;;21.30;1.00;;;;;;4987936;28;20288;-57
2023/07/14 09:29:31;;;;;;;6.03;1.70;;;21.10;1.00;;;;;;4984675;28;20221;-57
2023/07/14 09:32:06;;;;;;;5.93;2.40;;;21.60;1.00;;;;;;4987352;28;20642;-61
2023/07/14 09:34:38;;;;;;;4.33;2.10;;;21.60;1.00;;;;;;4983784;28;20201;-58
2023/07/14 09:37:44;;;;;;;4.70;2.03;;;22.00;1.00;;;;;;4987446;28;20206;-58
2023/07/14 09:40:17;;;;;;;2.90;1.67;;;21.50;1.00;;;;;;4970816;28;20213;-57
2023/07/14 09:42:56;;;;;;;3.77;1.80;;;21.70;1.00;;;;;;4980113;28;20656;-58
2023/07/14 09:45:35;;;;;;;3.17;1.90;;;21.60;1.00;;;;;;4985210;28;20609;-57
2023/07/14 09:48:02;;;;;;;4.33;1.90;;;21.40;1.00;;;;;;4981803;28;20259;-58
2023/07/14 09:50:37;;;;;;;4.00;2.03;;;21.70;1.00;;;;;;4987769;28;20673;-57
2023/07/14 09:53:07;;;;;;;3.80;2.10;;;21.60;1.00;;;;;;4983233;28;20224;-58
2023/07/14 09:56:26;;;;;;;3.70;2.20;;;21.50;1.00;;;;;;4983637;28;20213;-57
2023/07/14 09:58:58;;;;;;;4.13;2.17;;;21.50;1.00;;;;;;4981752;28;20688;-57
2023/07/14 10:01:24;;;;;;;6.73;2.73;;;21.30;1.00;;;;;;4984206;28;20217;-58
2023/07/14 10:03:54;;;;;;;2.87;2.13;;;21.40;1.00;;;;;;4979667;28;20252;-57
2023/07/14 10:06:26;;;;;;;3.97;2.40;;;21.40;1.00;;;;;;4985310;28;20209;-57
2023/07/14 10:08:57;;;;;;;3.90;2.20;;;21.80;1.00;;;;;;4981579;28;20425;-58
2023/07/14 10:11:29;;;;;;;3.80;2.30;;;21.90;1.00;;;;;;4967962;28;20216;-60
2023/07/14 10:14:17;;;;;;;3.50;2.27;;;21.90;1.00;;;;;;4973190;28;20389;-57
2023/07/14 10:16:45;;;;;;;3.67;2.17;;;22.00;1.00;;;;;;4967963;28;20346;-58
2023/07/14 10:19:15;;;;;;;3.10;2.57;;;22.30;1.00;;;;;;4959702;28;20249;-58
2023/07/14 10:22:04;;;;;;;3.60;2.33;;;22.40;1.00;;;;;;4979757;28;20664;-58
2023/07/14 10:24:31;;;;;;;3.43;2.30;;;22.20;1.00;;;;;;4974471;28;20202;-59
2023/07/14 10:27:05;;;;;;;4.10;2.57;;;22.20;1.00;;;;;;4975014;28;20194;-59
2023/07/14 10:30:11;;;;;;;5.67;2.33;;;22.20;1.00;;;;;;4977416;28;20566;-59
2023/07/14 10:32:55;;;;;;;4.43;1.97;;;22.30;1.00;;;;;;4976564;28;20230;-59
2023/07/14 10:35:25;;;;;;;2.97;2.23;;;22.50;1.00;;;;;;4979589;28;20245;-59
2023/07/14 10:37:58;;;;;;;3.07;2.37;;;22.30;1.00;;;;;;4978838;28;20236;-59
2023/07/14 10:40:29;;;;;;;5.20;2.50;;;22.40;1.00;;;;;;4975376;28;20214;-59
2023/07/14 10:43:12;;;;;;;3.77;2.83;;;22.20;1.00;;;;;;4974991;28;20344;-59
2023/07/14 10:45:44;;;;;;;4.07;2.40;;;22.10;1.00;;;;;;4976940;28;20577;-59
2023/07/14 10:48:17;;;;;;;4.00;2.03;;;21.90;1.00;;;;;;4979255;28;20264;-59
2023/07/14 10:50:58;;;;;;;3.20;2.50;;;21.90;1.00;;;;;;4974379;28;20210;-59
2023/07/14 10:53:31;;;;;;;3.23;2.37;;;21.70;1.00;;;;;;4974280;28;20945;-59
2023/07/14 10:56:05;;;;;;;2.73;2.10;;;21.80;1.00;;;;;;4968695;28;20578;-59
2023/07/14 10:58:44;;;;;;;3.07;1.87;;;21.70;1.00;;;;;;4975357;28;20612;-59
2023/07/14 11:01:21;;;;;;;4.73;2.43;;;22.00;1.00;;;;;;4970795;28;20203;-59
2023/07/14 11:03:55;;;;;;;2.23;2.03;;;22.10;1.00;;;;;;4970275;28;20677;-59
2023/07/14 11:06:28;;;;;;;3.37;2.43;;;22.20;1.00;;;;;;4968867;28;20198;-59
2023/07/14 11:08:57;;;;;;;3.33;2.10;;;22.20;1.00;;;;;;4964890;28;20248;-59
2023/07/14 11:11:48;;;;;;;3.37;2.47;;;22.20;1.00;;;;;;4969074;28;20709;-60
2023/07/14 11:14:36;;;;;;;3.63;2.13;;;22.20;1.00;;;;;;4982157;28;20229;-59
2023/07/14 11:17:28;;;;;;;4.97;2.47;;;21.90;1.00;;;;;;4967727;28;20767;-59
2023/07/14 11:20:08;;;;;;;4.17;2.03;;;21.90;1.00;;;;;;4972735;28;20222;-59
2023/07/14 11:22:50;;;;;;;2.17;1.90;;;21.90;1.00;;;;;;4975519;28;20307;-59
2023/07/14 11:25:21;;;;;;;2.80;1.70;;;22.00;1.00;;;;;;4970657;28;20204;-59
2023/07/14 11:28:04;;;;;;;4.27;2.30;;;22.10;1.00;;;;;;4977821;28;20206;-59
2023/07/14 11:30:39;;;;;;;3.00;2.30;;;22.20;1.00;;;;;;4983173;28;20195;-59
2023/07/14 11:33:06;;;;;;;4.03;2.37;;;22.30;1.00;;;;;;4978829;28;20209;-64
2023/07/14 11:35:40;;;;;;;4.87;2.37;;;22.00;1.00;;;;;;4982234;28;20196;-60
2023/07/14 11:38:35;;;;;;;2.70;2.10;;;22.00;1.00;;;;;;4977365;28;20264;-60
2023/07/14 11:41:03;;;;;;;3.30;1.90;;;22.40;1.00;;;;;;4987815;28;20257;-59
2023/07/14 11:43:31;;;;;;;3.50;2.30;;;22.60;1.00;;;;;;4994968;28;20206;-63
2023/07/14 11:46:13;;;;;;;5.90;2.20;;;22.60;1.00;;;;;;4977876;28;20213;-60
2023/07/14 11:48:59;;;;;;;2.90;1.93;;;22.40;1.00;;;;;;4982210;28;20230;-60
2023/07/14 11:51:50;;;;;;;4.73;2.17;;;22.70;1.00;;;;;;4977682;28;20935;-60
2023/07/14 11:54:20;;;;;;;2.87;1.90;;;22.80;1.00;;;;;;4974264;28;20205;-61
2023/07/14 11:57:03;;;;;;;2.90;2.00;;;22.90;1.00;;;;;;4970416;28;21331;-59
2023/07/14 11:59:32;;;;;;;2.67;2.10;;;23.10;1.00;;;;;;4976714;28;20224;-62
2023/07/14 12:02:29;;;;;;;4.80;1.87;;;23.50;1.00;;;;;;4979586;28;20226;-60
2023/07/14 12:05:22;;;;;;;3.73;1.70;;;24.00;1.00;;;;;;4972434;28;20201;-59
2023/07/14 12:08:04;;;;;;;3.53;2.07;;;24.20;1.00;;;;;;4974329;28;20566;-61
2023/07/14 12:10:43;;;;;;;2.50;1.67;;;24.00;1.00;;;;;;4979136;28;20206;-62
2023/07/14 12:13:19;;;;;;;4.13;1.77;;;24.20;1.00;;;;;;4975798;28;20668;-61
2023/07/14 12:16:11;;;;;;;3.90;2.10;;;23.90;1.00;;;;;;4975892;28;20225;-60
2023/07/14 12:18:58;;;;;;;3.70;1.90;;;23.90;1.00;;;;;;4977912;28;20620;-60
2023/07/14 12:21:28;;;;;;;2.17;1.83;;;23.70;1.00;;;;;;4978791;28;20556;-60
2023/07/14 12:24:03;;;;;;;2.90;2.00;;;23.90;1.00;;;;;;4977157;28;20289;-62
2023/07/14 12:26:45;;;;;;;2.87;1.90;;;24.10;1.00;;;;;;4978820;28;20197;-59
2023/07/14 12:29:16;;;;;;;3.13;1.77;;;24.00;1.00;;;;;;4976902;28;20213;-60
2023/07/14 12:31:53;;;;;;;3.93;1.83;;;23.80;1.00;;;;;;4980628;28;20198;-61
2023/07/14 12:34:24;;;;;;;5.37;1.97;;;23.90;1.00;;;;;;4977248;28;20209;-60
2023/07/14 12:36:52;;;;;;;4.27;1.80;;;23.90;1.00;;;;;;4966598;28;20220;-60
2023/07/14 12:39:20;;;;;;;4.20;2.40;;;24.10;1.00;;;;;;4974441;28;20249;-60
2023/07/14 12:41:49;;;;;;;2.80;1.90;;;24.10;1.00;;;;;;4973893;28;20304;-62
2023/07/14 12:44:21;;;;;;;5.53;2.00;;;24.20;1.00;;;;;;4971803;28;20569;-62
2023/07/14 12:46:48;;;;;;;4.00;1.70;;;24.50;1.00;;;;;;4965195;28;20225;-60
2023/07/14 12:49:33;;;;;;;2.10;1.73;;;24.30;1.00;;;;;;4974002;28;20261;-60
2023/07/14 12:52:23;;;;;;;5.10;1.90;;;24.50;1.00;;;;;;4982064;28;20221;-60
2023/07/14 12:54:52;;;;;;;5.77;2.10;;;24.70;1.00;;;;;;4975660;28;20298;-59
2023/07/14 12:57:20;;;;;;;3.00;1.70;;;24.80;1.00;;;;;;4977375;28;20366;-60
2023/07/14 12:59:52;;;;;;;3.23;1.93;;;24.50;1.00;;;;;;4977537;28;20633;-60
2023/07/14 13:02:19;;;;;;;3.60;1.87;;;24.50;1.00;;;;;;4976197;28;21274;-60
2023/07/14 13:04:46;;;;;;;6.30;2.47;;;24.40;1.00;;;;;;4976855;28;20236;-60
2023/07/14 13:07:20;;;;;;;3.93;2.13;;;24.50;1.00;;;;;;4978670;28;20748;-60
2023/07/14 13:09:59;;;;;;;4.40;2.40;;;24.10;1.00;;;;;;4979566;28;20212;-60
2023/07/14 13:12:27;;;;;;;3.30;1.97;;;24.20;1.00;;;;;;4976046;28;20237;-60
2023/07/14 13:14:56;;;;;;;4.57;2.13;;;24.50;1.00;;;;;;4972823;28;20202;-60
2023/07/14 13:17:26;;;;;;;3.60;1.90;;;24.80;1.00;;;;;;4976069;28;20677;-59
2023/07/14 13:19:53;;;;;;;3.77;2.10;;;24.70;1.00;;;;;;4975009;28;20250;-60